Time;durP1;ratioP1;P1;durP2;ratioP2;P2;SDS_P1;SDS_P2;PMS_P1;PMS_P2;Temp;Humidity;BMP_temperature;BMP_pressure;BME280_temperature;BME280_humidity;BME280_pressure;Samples;Min_cycle;Max_cycle;Signal;HPM_P1;HPM_P2
2022/09/07 00:00:47;;;;;;;;;3.00;2.00;;;;;23.21;40.57;101406.74;110413;1264;14137;-72
2022/09/07 00:03:14;;;;;;;;;2.00;2.00;;;;;23.21;40.57;101404.34;110417;1264;14564;-72
2022/09/07 00:05:41;;;;;;;;;2.00;2.00;;;;;23.22;40.53;101402.25;110394;1262;14216;-71
2022/09/07 00:08:09;;;;;;;;;1.33;1.33;;;;;23.22;40.52;101401.91;110459;1263;12477;-72
2022/09/07 00:10:37;;;;;;;;;2.00;2.00;;;;;23.21;40.55;101398.50;110340;1264;14395;-70
2022/09/07 00:13:04;;;;;;;;;1.67;1.67;;;;;23.22;40.48;101401.36;110263;1263;14503;-70
2022/09/07 00:15:31;;;;;;;;;1.00;1.00;;;;;23.22;40.51;101402.17;110310;1264;14186;-71
2022/09/07 00:17:59;;;;;;;;;2.00;2.00;;;;;23.24;40.48;101400.05;110435;1264;15007;-71
2022/09/07 00:20:27;;;;;;;;;2.00;2.00;;;;;23.22;40.51;101398.80;110509;1264;13060;-71
2022/09/07 00:22:54;;;;;;;;;2.33;2.33;;;;;23.22;40.61;101397.33;110443;1264;12969;-73
2022/09/07 00:25:22;;;;;;;;;1.67;1.33;;;;;23.22;40.55;101401.53;110447;1264;14942;-72
2022/09/07 00:27:49;;;;;;;;;3.00;2.00;;;;;23.21;40.53;101400.85;110491;1264;14305;-72
2022/09/07 00:30:16;;;;;;;;;2.00;2.00;;;;;23.21;40.60;101399.41;110392;1264;13313;-72
2022/09/07 00:32:44;;;;;;;;;1.67;1.67;;;;;23.21;40.61;101400.35;110356;1263;14383;-71
2022/09/07 00:35:12;;;;;;;;;2.00;2.00;;;;;23.20;40.58;101399.48;110472;1263;13048;-71
2022/09/07 00:37:40;;;;;;;;;3.00;2.67;;;;;23.21;40.62;101403.29;110342;1264;14101;-71
2022/09/07 00:40:07;;;;;;;;;2.50;2.00;;;;;23.22;40.63;101402.25;110346;1263;14249;-71
2022/09/07 00:42:34;;;;;;;;;1.00;1.00;;;;;23.21;40.59;101404.14;110348;1264;14385;-72
2022/09/07 00:45:01;;;;;;;;;2.00;2.00;;;;;23.21;40.62;101403.76;110413;1264;13375;-71
2022/09/07 00:47:29;;;;;;;;;1.33;1.33;;;;;23.21;40.56;101402.66;110479;1264;12637;-71
2022/09/07 00:49:57;;;;;;;;;2.00;2.00;;;;;23.21;40.52;101397.02;110440;1264;14657;-71
2022/09/07 00:52:25;;;;;;;;;2.00;2.00;;;;;23.21;40.51;101392.14;110413;1264;15248;-72
2022/09/07 00:54:52;;;;;;;;;1.00;1.00;;;;;23.22;40.52;101396.99;110429;1264;12696;-72
2022/09/07 00:57:20;;;;;;;;;1.67;1.67;;;;;23.22;40.50;101394.98;110439;1264;13014;-71
2022/09/07 00:59:47;;;;;;;;;3.00;3.00;;;;;23.21;40.52;101393.91;110428;1262;13759;-71
2022/09/07 01:02:15;;;;;;;;;2.00;2.00;;;;;23.21;40.49;101393.06;110403;1263;13508;-71
2022/09/07 01:04:43;;;;;;;;;1.00;1.00;;;;;23.21;40.53;101390.47;110455;1264;15053;-70
2022/09/07 01:07:10;;;;;;;;;2.33;2.00;;;;;23.21;40.46;101392.89;110379;1264;13978;-71
2022/09/07 01:09:38;;;;;;;;;2.00;2.00;;;;;23.20;40.48;101397.72;110332;1264;16086;-71
2022/09/07 01:12:05;;;;;;;;;2.00;2.00;;;;;23.21;40.51;101396.89;110440;1264;15160;-72
2022/09/07 01:14:33;;;;;;;;;1.00;1.00;;;;;23.21;40.46;101397.98;110478;1264;12658;-72
2022/09/07 01:17:01;;;;;;;;;2.67;2.00;;;;;23.20;40.42;101392.55;110423;1264;13168;-72
2022/09/07 01:19:28;;;;;;;;;2.00;2.00;;;;;23.20;40.40;101389.44;110423;1264;13145;-71
2022/09/07 01:21:55;;;;;;;;;2.67;2.67;;;;;23.19;40.38;101391.20;110454;1263;14078;-72
2022/09/07 01:24:23;;;;;;;;;2.67;2.67;;;;;23.19;40.41;101390.13;110482;1264;14693;-71
2022/09/07 01:26:50;;;;;;;;;2.33;2.00;;;;;23.19;40.39;101394.10;110411;1264;13607;-72
2022/09/07 01:29:18;;;;;;;;;2.00;2.00;;;;;23.18;40.39;101388.38;110470;1263;13094;-71
2022/09/07 01:31:45;;;;;;;;;2.00;2.00;;;;;23.17;40.39;101383.39;110453;1264;14182;-72
2022/09/07 01:34:13;;;;;;;;;2.00;2.00;;;;;23.18;40.35;101379.16;110441;1263;13728;-71
2022/09/07 01:36:41;;;;;;;;;2.33;2.00;;;;;23.19;40.34;101381.17;110369;1264;14528;-71
2022/09/07 01:39:08;;;;;;;;;1.67;1.67;;;;;23.20;40.31;101380.35;110467;1264;13105;-72
2022/09/07 01:41:35;;;;;;;;;2.00;2.00;;;;;23.19;40.29;101380.11;110371;1263;14661;-72
2022/09/07 01:44:02;;;;;;;;;2.00;2.00;;;;;23.18;40.28;101375.06;110436;1264;13104;-71
2022/09/07 01:46:30;;;;;;;;;3.00;3.00;;;;;23.19;40.24;101374.45;110452;1264;13840;-72
2022/09/07 01:48:57;;;;;;;;;3.00;2.50;;;;;23.19;40.19;101370.31;110440;1264;13534;-73
2022/09/07 01:54:27;;;;;;;;;2.00;2.00;;;;;23.17;40.22;101366.06;110191;1262;12965;-71
2022/09/07 01:56:55;;;;;;;;;2.00;2.00;;;;;23.17;40.17;101368.83;110528;1261;13172;-71
2022/09/07 01:59:23;;;;;;;;;2.00;2.00;;;;;23.18;40.15;101372.05;110445;1263;13234;-70
2022/09/07 02:01:50;;;;;;;;;3.00;3.00;;;;;23.17;40.19;101370.84;110408;1263;17047;-71
2022/09/07 02:04:17;;;;;;;;;2.00;2.00;;;;;23.17;40.17;101365.75;110454;1264;14322;-72
2022/09/07 02:06:45;;;;;;;;;2.00;2.00;;;;;23.18;40.13;101364.55;110376;1264;14335;-72
2022/09/07 02:09:13;;;;;;;;;2.00;2.00;;;;;23.18;40.15;101362.92;110473;1263;12827;-72
2022/09/07 02:11:41;;;;;;;;;2.00;2.00;;;;;23.18;40.11;101361.79;110388;1264;13843;-72
2022/09/07 02:14:08;;;;;;;;;2.00;2.00;;;;;23.17;40.15;101360.23;110455;1263;15007;-72
2022/09/07 02:16:36;;;;;;;;;2.00;2.00;;;;;23.17;40.13;101361.34;110461;1263;15000;-72
2022/09/07 02:19:03;;;;;;;;;3.00;2.00;;;;;23.17;40.13;101361.14;110458;1263;14728;-72
2022/09/07 02:21:31;;;;;;;;;3.00;2.00;;;;;23.17;40.12;101362.98;110448;1263;14928;-72
2022/09/07 02:23:58;;;;;;;;;2.00;2.00;;;;;23.17;40.12;101360.08;110484;1264;13220;-71
2022/09/07 02:26:26;;;;;;;;;2.00;2.00;;;;;23.17;40.07;101354.23;110422;1263;14419;-72
2022/09/07 02:28:53;;;;;;;;;2.67;2.00;;;;;23.17;40.15;101355.02;110426;1263;14478;-72
2022/09/07 02:31:21;;;;;;;;;2.00;2.00;;;;;23.17;40.20;101355.16;110429;1264;13745;-71
2022/09/07 02:33:48;;;;;;;;;3.00;2.00;;;;;23.17;40.07;101358.85;110401;1264;13597;-72
2022/09/07 02:36:15;;;;;;;;;2.00;2.00;;;;;23.16;40.14;101359.98;110403;1264;13085;-71
2022/09/07 02:38:43;;;;;;;;;2.00;2.00;;;;;23.17;40.08;101363.37;110293;1264;12961;-71
2022/09/07 02:41:10;;;;;;;;;2.00;2.00;;;;;23.17;40.06;101361.00;110352;1264;14008;-70
2022/09/07 02:43:38;;;;;;;;;2.00;2.00;;;;;23.15;40.05;101358.63;110368;1264;14413;-72
2022/09/07 02:46:06;;;;;;;;;1.33;1.33;;;;;23.16;40.04;101355.98;110463;1264;14444;-72
2022/09/07 02:48:33;;;;;;;;;2.00;2.00;;;;;23.16;40.04;101353.11;110388;1264;13476;-71
2022/09/07 02:51:01;;;;;;;;;2.00;2.00;;;;;23.16;40.07;101353.99;110475;1264;14885;-72
2022/09/07 02:53:29;;;;;;;;;2.00;2.00;;;;;23.15;40.05;101353.52;110442;1264;13048;-72
2022/09/07 02:55:57;;;;;;;;;2.00;2.00;;;;;23.15;40.02;101350.70;110504;1264;13648;-72
2022/09/07 02:58:25;;;;;;;;;2.00;2.00;;;;;23.16;39.97;101354.51;110457;1263;13153;-71
2022/09/07 03:00:52;;;;;;;;;3.00;2.00;;;;;23.16;40.01;101351.67;110489;1263;15235;-71
2022/09/07 03:03:19;;;;;;;;;2.00;2.00;;;;;23.17;40.01;101353.14;110465;1264;12941;-72
2022/09/07 03:05:47;;;;;;;;;1.67;1.67;;;;;23.16;40.03;101351.02;110435;1264;13196;-70
2022/09/07 03:08:14;;;;;;;;;2.00;2.00;;;;;23.17;39.99;101350.77;110461;1264;13193;-68
2022/09/07 03:10:42;;;;;;;;;2.00;2.00;;;;;23.17;39.98;101350.64;110392;1264;13615;-71
2022/09/07 03:13:09;;;;;;;;;2.00;2.00;;;;;23.16;39.94;101348.73;110445;1264;12840;-70
2022/09/07 03:15:37;;;;;;;;;2.00;2.00;;;;;23.17;40.00;101352.84;110461;1263;13207;-69
2022/09/07 03:18:04;;;;;;;;;3.00;3.00;;;;;23.16;39.96;101354.30;110480;1264;12699;-72
2022/09/07 03:20:32;;;;;;;;;2.00;2.00;;;;;23.17;39.96;101356.77;110436;1264;14724;-72
2022/09/07 03:23:00;;;;;;;;;2.00;2.00;;;;;23.17;39.98;101355.94;110461;1264;14385;-72
2022/09/07 03:25:28;;;;;;;;;2.00;2.00;;;;;23.17;39.99;101356.48;110439;1264;14580;-71
2022/09/07 03:27:55;;;;;;;;;2.00;2.00;;;;;23.16;39.97;101360.90;110459;1264;14332;-71
2022/09/07 03:30:23;;;;;;;;;2.00;2.00;;;;;23.15;39.96;101358.45;110463;1264;18199;-71
2022/09/07 03:32:50;;;;;;;;;2.00;1.00;;;;;23.15;39.95;101359.20;110430;1263;12999;-72
2022/09/07 03:35:18;;;;;;;;;2.00;2.00;;;;;23.15;40.00;101357.05;110421;1263;14170;-71
2022/09/07 03:37:45;;;;;;;;;2.00;2.00;;;;;23.13;40.09;101354.36;110420;1264;14199;-71
2022/09/07 03:40:13;;;;;;;;;3.00;3.00;;;;;23.14;40.03;101349.92;110449;1263;13680;-72
2022/09/07 03:42:41;;;;;;;;;2.67;2.00;;;;;23.14;39.98;101352.91;110433;1264;14055;-72
2022/09/07 03:45:09;;;;;;;;;1.00;1.00;;;;;23.13;39.96;101355.05;110492;1264;13013;-71
2022/09/07 03:47:36;;;;;;;;;2.50;2.00;;;;;23.14;40.00;101354.77;110445;1263;13607;-72
2022/09/07 03:50:04;;;;;;;;;2.00;2.00;;;;;23.15;39.98;101353.06;110415;1264;13203;-72
2022/09/07 03:52:31;;;;;;;;;1.00;1.00;;;;;23.14;39.98;101349.33;110443;1263;12053;-72
2022/09/07 03:54:58;;;;;;;;;2.33;2.33;;;;;23.14;40.01;101349.27;110451;1264;13387;-72
2022/09/07 03:57:26;;;;;;;;;2.00;2.00;;;;;23.15;39.97;101349.61;110449;1264;14294;-71
2022/09/07 03:59:54;;;;;;;;;2.00;2.00;;;;;23.15;39.93;101351.00;110437;1264;12986;-71
2022/09/07 04:02:21;;;;;;;;;2.00;2.00;;;;;23.15;39.90;101353.73;110424;1264;13416;-72
2022/09/07 04:04:49;;;;;;;;;2.00;2.00;;;;;23.14;39.92;101354.23;110429;1264;13931;-72
2022/09/07 04:07:16;;;;;;;;;2.00;2.00;;;;;23.14;39.92;101359.15;110435;1263;13231;-72
2022/09/07 04:09:44;;;;;;;;;2.00;2.00;;;;;23.15;39.91;101360.58;110376;1264;14192;-71
2022/09/07 04:12:12;;;;;;;;;2.00;2.00;;;;;23.14;39.91;101360.61;110457;1264;12921;-70
2022/09/07 04:14:39;;;;;;;;;3.00;3.00;;;;;23.13;39.89;101354.49;110405;1264;14391;-71
2022/09/07 04:17:06;;;;;;;;;2.00;2.00;;;;;23.14;39.85;101357.73;110422;1264;17420;-71
2022/09/07 04:19:33;;;;;;;;;2.67;2.00;;;;;23.13;39.92;101360.96;110397;1263;14613;-71
2022/09/07 04:22:01;;;;;;;;;2.00;2.00;;;;;23.13;39.87;101360.89;110406;1264;13733;-71
2022/09/07 04:24:29;;;;;;;;;2.00;2.00;;;;;23.14;39.84;101361.75;110451;1263;13700;-72
2022/09/07 04:26:56;;;;;;;;;2.00;2.00;;;;;23.13;39.89;101357.64;110480;1263;12804;-72
2022/09/07 04:29:23;;;;;;;;;2.00;2.00;;;;;23.12;39.82;101352.80;110380;1264;14355;-72
2022/09/07 04:31:51;;;;;;;;;2.00;2.00;;;;;23.12;39.91;101353.02;110419;1263;13318;-71
2022/09/07 04:34:19;;;;;;;;;2.00;2.00;;;;;23.13;39.81;101343.42;110428;1264;13016;-71
2022/09/07 04:36:47;;;;;;;;;2.33;2.00;;;;;23.13;39.84;101338.49;110406;1264;14158;-72
2022/09/07 04:39:14;;;;;;;;;2.33;2.33;;;;;23.13;39.76;101335.73;110492;1263;13071;-72
2022/09/07 04:41:41;;;;;;;;;2.00;2.00;;;;;23.13;39.78;101335.02;110416;1264;14435;-72
2022/09/07 04:44:09;;;;;;;;;2.00;2.00;;;;;23.13;39.81;101341.92;110407;1264;14120;-72
2022/09/07 04:46:36;;;;;;;;;5.00;2.67;;;;;23.13;39.84;101345.79;110286;1264;14124;-72
2022/09/07 04:49:04;;;;;;;;;2.00;2.00;;;;;23.14;39.78;101350.40;110347;1264;14076;-72
2022/09/07 04:51:31;;;;;;;;;2.00;2.00;;;;;23.14;39.77;101354.27;110383;1264;14442;-72
2022/09/07 04:53:59;;;;;;;;;2.50;2.50;;;;;23.15;39.77;101348.67;110448;1264;12984;-72
2022/09/07 04:56:26;;;;;;;;;2.00;2.00;;;;;23.16;39.79;101344.83;110401;1263;13112;-71
2022/09/07 04:58:54;;;;;;;;;2.00;2.00;;;;;23.17;39.73;101342.79;110304;1263;13560;-72
2022/09/07 05:01:22;;;;;;;;;2.00;2.00;;;;;23.17;39.76;101334.50;110375;1263;14620;-72
2022/09/07 05:03:49;;;;;;;;;2.00;2.00;;;;;23.19;39.76;101328.86;110333;1264;14400;-71
2022/09/07 05:06:17;;;;;;;;;2.00;2.00;;;;;23.20;39.95;101321.69;110395;1263;13324;-71
2022/09/07 05:08:44;;;;;;;;;6.67;5.00;;;;;23.21;40.32;101322.05;110000;1264;14718;-71
2022/09/07 05:11:11;;;;;;;;;2.00;2.00;;;;;23.23;40.29;101318.72;110384;1263;14108;-71
2022/09/07 05:13:39;;;;;;;;;2.67;2.67;;;;;23.22;40.35;101314.02;110422;1264;13175;-72
2022/09/07 05:16:06;;;;;;;;;3.00;3.00;;;;;23.23;40.50;101318.58;110313;1264;14154;-72
2022/09/07 05:18:34;;;;;;;;;2.00;2.00;;;;;23.24;40.39;101314.79;109339;1263;1429247;-71
2022/09/07 05:21:01;;;;;;;;;2.67;2.67;;;;;23.24;40.52;101307.00;110449;1264;11517;-71
2022/09/07 05:23:29;;;;;;;;;5.00;5.00;;;;;23.21;40.52;101314.18;110402;1264;14722;-72
2022/09/07 05:25:56;;;;;;;;;8.00;8.00;;;;;23.09;39.75;101310.77;110374;1264;14420;-70
2022/09/07 05:28:24;;;;;;;;;7.00;7.00;;;;;22.70;38.44;101315.54;110293;1264;13215;-70
2022/09/07 05:30:58;;;;;;;;;6.00;6.00;;;;;22.53;38.50;101327.73;110418;1264;14053;-70
2022/09/07 05:33:25;;;;;;;;;6.00;6.00;;;;;22.52;38.09;101341.13;110386;1264;13745;-70
2022/09/07 05:35:53;;;;;;;;;8.67;8.00;;;;;22.45;37.52;101348.96;110470;1264;13196;-71
2022/09/07 05:38:20;;;;;;;;;8.00;7.67;;;;;22.37;37.33;101354.79;110366;1264;13692;-71
2022/09/07 05:40:48;;;;;;;;;7.50;7.00;;;;;22.38;37.05;101353.86;110413;1264;14296;-70
2022/09/07 05:43:15;;;;;;;;;10.00;9.33;;;;;22.41;36.70;101357.14;110388;1264;13600;-71
2022/09/07 05:45:43;;;;;;;;;6.00;6.00;;;;;22.40;36.42;101348.46;110387;1263;13196;-71
2022/09/07 05:48:10;;;;;;;;;6.33;6.00;;;;;22.25;36.62;101345.83;110432;1264;13336;-70
2022/09/07 05:50:38;;;;;;;;;10.67;7.00;;;;;22.39;36.79;101348.77;110448;1264;14045;-71
2022/09/07 05:53:05;;;;;;;;;5.00;5.00;;;;;22.66;36.67;101346.68;110381;1263;13243;-70
2022/09/07 05:55:33;;;;;;;;;5.00;5.00;;;;;22.85;36.56;101351.92;110386;1263;14829;-70
2022/09/07 05:58:00;;;;;;;;;6.00;6.00;;;;;22.98;36.81;101342.08;110439;1263;13188;-70
2022/09/07 06:00:28;;;;;;;;;3.67;3.67;;;;;23.09;37.20;101340.61;110396;1264;14476;-71
2022/09/07 06:02:55;;;;;;;;;6.00;6.00;;;;;23.16;37.48;101345.22;110422;1264;12904;-70
2022/09/07 06:05:22;;;;;;;;;2.67;2.67;;;;;23.21;37.44;101346.94;110374;1264;14653;-70
2022/09/07 06:07:49;;;;;;;;;5.00;3.00;;;;;23.25;37.73;101348.39;110383;1264;14499;-71
2022/09/07 06:10:17;;;;;;;;;3.00;3.00;;;;;23.31;37.93;101347.57;110415;1264;14515;-70
2022/09/07 06:12:44;;;;;;;;;5.00;5.00;;;;;23.37;37.95;101352.91;110396;1263;14328;-71
2022/09/07 06:15:11;;;;;;;;;4.50;4.50;;;;;23.38;38.00;101353.98;110408;1263;13387;-70
2022/09/07 06:17:38;;;;;;;;;4.00;4.00;;;;;23.40;38.12;101359.24;110410;1262;13948;-71
2022/09/07 06:20:06;;;;;;;;;3.00;3.00;;;;;23.44;38.07;101356.05;110397;1262;14044;-71
2022/09/07 06:22:33;;;;;;;;;3.00;3.00;;;;;23.48;38.08;101358.01;110370;1262;13646;-66
2022/09/07 06:25:00;;;;;;;;;3.00;3.00;;;;;23.49;38.08;101353.46;110374;1264;13190;-69
2022/09/07 06:27:28;;;;;;;;;3.00;3.00;;;;;23.51;38.02;101351.73;110393;1264;13732;-70
2022/09/07 06:29:56;;;;;;;;;3.00;3.00;;;;;23.54;38.00;101348.70;110402;1264;15025;-71
2022/09/07 06:32:24;;;;;;;;;4.33;4.33;;;;;23.55;38.02;101344.13;110421;1264;13132;-71
2022/09/07 06:34:52;;;;;;;;;5.00;4.00;;;;;23.56;38.07;101345.27;110376;1264;13977;-71
2022/09/07 06:37:19;;;;;;;;;6.00;5.00;;;;;23.58;38.06;101342.11;110371;1264;14280;-72
2022/09/07 06:39:48;;;;;;;;;3.00;3.00;;;;;23.63;38.06;101341.08;110361;1263;13805;-71
2022/09/07 06:42:15;;;;;;;;;2.67;2.67;;;;;23.68;38.35;101342.87;110331;1264;13372;-70
2022/09/07 06:44:43;;;;;;;;;3.00;3.00;;;;;23.73;38.75;101341.86;110404;1264;14465;-71
2022/09/07 06:47:10;;;;;;;;;3.00;2.67;;;;;23.77;39.05;101335.00;110407;1263;14229;-71
2022/09/07 06:49:38;;;;;;;;;2.00;2.00;;;;;23.79;39.12;101334.48;110425;1263;14263;-71
2022/09/07 06:52:06;;;;;;;;;4.00;3.00;;;;;23.79;39.15;101331.71;110362;1262;13504;-70
2022/09/07 06:54:33;;;;;;;;;3.67;3.00;;;;;23.80;39.10;101335.21;110417;1264;13891;-71
2022/09/07 06:57:06;;;;;;;;;3.00;3.00;;;;;23.80;39.16;101328.61;110436;1264;13091;-71
2022/09/07 06:59:34;;;;;;;;;2.67;2.33;;;;;23.81;39.14;101332.52;110421;1264;14336;-72
2022/09/07 07:02:01;;;;;;;;;2.33;2.33;;;;;23.86;39.23;101337.02;110317;1264;14530;-73
2022/09/07 07:04:29;;;;;;;;;3.00;3.00;;;;;23.91;39.35;101337.73;110392;1263;13780;-72
2022/09/07 07:06:56;;;;;;;;;4.00;4.00;;;;;23.92;39.24;101335.09;110396;1263;13713;-70
2022/09/07 07:09:23;;;;;;;;;3.00;2.50;;;;;23.90;39.18;101342.90;110444;1264;13271;-70
2022/09/07 07:11:51;;;;;;;;;2.00;2.00;;;;;23.91;39.19;101339.38;110433;1264;13055;-69
2022/09/07 07:14:19;;;;;;;;;4.00;3.00;;;;;23.92;39.29;101339.36;110384;1264;13681;-69
2022/09/07 07:16:47;;;;;;;;;2.00;2.00;;;;;23.94;39.31;101339.52;110368;1264;18133;-70
2022/09/07 07:19:14;;;;;;;;;2.67;2.67;;;;;23.94;39.44;101343.75;110105;1263;13974;-70
2022/09/07 07:21:41;;;;;;;;;3.00;3.00;;;;;23.98;39.54;101343.50;110329;1264;14113;-70
2022/09/07 07:24:09;;;;;;;;;3.00;3.00;;;;;24.01;39.59;101340.17;110364;1264;13256;-70
2022/09/07 07:26:39;;;;;;;;;3.67;2.67;;;;;24.01;39.55;101343.61;110303;1263;17723;-68
2022/09/07 07:29:06;;;;;;;;;3.00;3.00;;;;;23.99;39.52;101338.20;110362;1264;14007;-70
2022/09/07 07:31:33;;;;;;;;;3.50;3.50;;;;;23.99;39.43;101341.80;110339;1264;14877;-70
2022/09/07 07:34:02;;;;;;;;;2.00;2.00;;;;;23.99;39.43;101344.61;110370;1264;14096;-70
2022/09/07 07:36:30;;;;;;;;;3.00;3.00;;;;;24.04;39.55;101343.44;110354;1264;14812;-71
2022/09/07 07:38:57;;;;;;;;;2.33;2.33;;;;;24.08;39.68;101339.84;110376;1263;13358;-71
2022/09/07 07:41:25;;;;;;;;;3.33;3.00;;;;;24.11;39.93;101343.38;110386;1264;14796;-71
2022/09/07 07:43:55;;;;;;;;;2.00;2.00;;;;;24.08;39.91;101339.63;110357;1264;14272;-70
2022/09/07 07:46:23;;;;;;;;;2.67;2.00;;;;;24.04;39.83;101344.70;110435;1263;13112;-70
2022/09/07 07:48:50;;;;;;;;;3.50;3.00;;;;;24.02;39.73;101345.00;110421;1264;14535;-71
2022/09/07 07:51:17;;;;;;;;;3.00;2.00;;;;;24.01;39.70;101339.08;110269;1264;13070;-68
2022/09/07 07:53:44;;;;;;;;;4.00;3.00;;;;;24.01;39.64;101337.44;110262;1264;14367;-70
2022/09/07 07:56:12;;;;;;;;;4.33;4.00;;;;;23.89;39.07;101337.03;110356;1262;14650;-69
2022/09/07 07:58:39;;;;;;;;;40.00;29.33;;;;;23.76;38.76;101341.74;110367;1263;14476;-70
2022/09/07 08:01:09;;;;;;;;;60.67;44.67;;;;;23.63;38.24;101341.45;110348;1264;14260;-69
2022/09/07 08:03:36;;;;;;;;;68.50;53.00;;;;;23.60;37.46;101343.02;110449;1264;15243;-70
2022/09/07 08:06:03;;;;;;;;;72.33;55.00;;;;;23.62;36.81;101346.69;110389;1264;11862;-69
2022/09/07 08:08:31;;;;;;;;;53.00;42.33;;;;;23.60;36.67;101345.58;110375;1263;14258;-70
2022/09/07 08:10:58;;;;;;;;;43.33;35.67;;;;;23.48;36.83;101343.71;110376;1263;13420;-70
2022/09/07 08:13:26;;;;;;;;;27.33;24.33;;;;;23.45;36.59;101342.47;110385;1264;14633;-70
2022/09/07 08:15:53;;;;;;;;;30.00;22.50;;;;;23.38;36.38;101345.65;110381;1264;14686;-72
2022/09/07 08:18:21;;;;;;;;;28.33;22.67;;;;;23.43;36.46;101344.66;110418;1264;13140;-71
2022/09/07 08:20:48;;;;;;;;;19.33;15.00;;;;;23.50;36.32;101347.88;110389;1264;14254;-71
2022/09/07 08:23:19;;;;;;;;;17.67;15.00;;;;;23.50;36.02;101338.75;110397;1264;14195;-70
2022/09/07 08:25:46;;;;;;;;;14.00;11.00;;;;;23.51;36.43;101340.86;110402;1264;13814;-69
2022/09/07 08:28:14;;;;;;;;;8.00;8.00;;;;;23.49;35.77;101337.79;110424;1263;13377;-70
2022/09/07 08:30:41;;;;;;;;;7.67;6.00;;;;;23.45;34.90;101340.23;110384;1264;13167;-70
2022/09/07 08:33:09;;;;;;;;;10.50;9.50;;;;;23.44;34.78;101339.95;110457;1264;14070;-71
2022/09/07 08:35:36;;;;;;;;;7.00;6.00;;;;;23.46;34.97;101342.08;110365;1263;14695;-70
2022/09/07 08:38:03;;;;;;;;;7.00;6.67;;;;;23.47;35.27;101337.63;110446;1264;15626;-70
2022/09/07 08:40:31;;;;;;;;;8.67;7.67;;;;;23.43;34.83;101337.52;110362;1263;15628;-69
2022/09/07 08:42:58;;;;;;;;;7.00;6.00;;;;;23.30;33.99;101329.41;110463;1264;13196;-69
2022/09/07 08:45:26;;;;;;;;;6.00;5.33;;;;;22.83;33.07;101322.98;110432;1264;15721;-67
2022/09/07 08:47:53;;;;;;;;;5.00;5.00;;;;;22.57;32.88;101322.85;110329;1263;13129;-69
2022/09/07 08:50:21;;;;;;;;;5.67;5.67;;;;;22.55;32.55;101324.02;110420;1264;14454;-67
2022/09/07 08:52:48;;;;;;;;;6.67;6.00;;;;;22.42;31.72;101323.64;110537;1264;14705;-69
2022/09/07 08:55:16;;;;;;;;;5.00;5.00;;;;;22.43;31.74;101316.84;110424;1263;15213;-68
2022/09/07 08:57:43;;;;;;;;;4.33;4.33;;;;;22.09;31.64;101313.75;110399;1264;15280;-70
2022/09/07 09:00:12;;;;;;;;;5.00;5.00;;;;;21.94;31.69;101317.06;110397;1263;13714;-70
2022/09/07 09:02:40;;;;;;;;;5.00;5.00;;;;;22.29;31.54;101312.85;110380;1263;13141;-71
2022/09/07 09:05:08;;;;;;;;;5.00;5.00;;;;;22.51;31.38;101309.24;110406;1264;13538;-71
2022/09/07 09:07:35;;;;;;;;;5.00;5.00;;;;;22.07;31.01;101309.19;110412;1264;12998;-71
2022/09/07 09:10:02;;;;;;;;;3.67;3.00;;;;;22.27;31.06;101308.13;110390;1264;14655;-70
2022/09/07 09:12:30;;;;;;;;;3.00;2.33;;;;;22.41;30.75;101298.86;110372;1264;13182;-71
2022/09/07 09:14:58;;;;;;;;;2.33;2.33;;;;;22.43;30.42;101287.70;110442;1264;12855;-71
2022/09/07 09:17:25;;;;;;;;;3.00;3.00;;;;;22.22;30.36;101287.14;110372;1264;14309;-71
2022/09/07 09:19:53;;;;;;;;;5.00;3.00;;;;;22.22;30.35;101287.52;110389;1263;14713;-68
2022/09/07 09:22:20;;;;;;;;;3.00;3.00;;;;;22.18;29.94;101279.67;110375;1264;13417;-70
2022/09/07 09:24:48;;;;;;;;;5.00;3.00;;;;;22.16;30.01;101278.97;110397;1264;14962;-70
2022/09/07 09:27:15;;;;;;;;;6.00;5.00;;;;;22.24;29.97;101272.81;110431;1263;13042;-70
2022/09/07 09:29:42;;;;;;;;;5.00;4.33;;;;;22.29;29.89;101280.23;110432;1264;13055;-68
2022/09/07 09:32:10;;;;;;;;;5.00;5.00;;;;;21.59;29.85;101282.54;110333;1264;13638;-70
2022/09/07 09:34:37;;;;;;;;;4.00;3.00;;;;;21.43;30.10;101282.55;110378;1264;14433;-69
2022/09/07 09:37:04;;;;;;;;;5.00;5.00;;;;;21.52;30.24;101268.59;110228;1263;14459;-67
2022/09/07 09:39:32;;;;;;;;;3.00;3.00;;;;;21.66;30.41;101270.92;110416;1264;13556;-69
2022/09/07 09:41:59;;;;;;;;;4.33;4.33;;;;;21.90;30.34;101260.04;110432;1264;13189;-70
2022/09/07 09:44:27;;;;;;;;;5.00;5.00;;;;;21.90;30.12;101264.95;110425;1263;14374;-70
2022/09/07 09:46:55;;;;;;;;;6.00;5.67;;;;;21.83;30.06;101262.39;110367;1264;13797;-70
2022/09/07 09:49:22;;;;;;;;;2.67;2.67;;;;;21.34;30.18;101259.26;110465;1264;14527;-70
2022/09/07 09:51:51;;;;;;;;;3.00;3.00;;;;;21.62;30.28;101259.88;110370;1263;14597;-69
2022/09/07 09:54:18;;;;;;;;;3.00;3.00;;;;;22.02;30.07;101254.84;110392;1264;17710;-70
2022/09/07 09:56:47;;;;;;;;;3.00;3.00;;;;;22.21;30.04;101255.48;110322;1264;14100;-70
2022/09/07 09:59:15;;;;;;;;;3.00;3.00;;;;;22.36;30.17;101257.91;110364;1263;14635;-70
2022/09/07 10:01:43;;;;;;;;;5.00;3.00;;;;;22.50;30.19;101251.57;110301;1263;13575;-69
2022/09/07 10:04:10;;;;;;;;;3.00;3.00;;;;;22.39;30.23;101258.89;110337;1262;14330;-69
2022/09/07 10:06:37;;;;;;;;;3.67;3.67;;;;;22.49;30.27;101251.89;110399;1264;14046;-69
2022/09/07 10:09:05;;;;;;;;;3.00;3.00;;;;;22.52;30.09;101251.50;110441;1264;13000;-69
2022/09/07 10:11:32;;;;;;;;;5.00;5.00;;;;;22.38;29.98;101254.59;110372;1264;13810;-67
2022/09/07 10:14:00;;;;;;;;;3.00;3.00;;;;;22.34;30.23;101252.14;110383;1263;15164;-68
2022/09/07 10:16:27;;;;;;;;;3.00;3.00;;;;;22.25;29.96;101254.74;110419;1263;15016;-67
2022/09/07 10:18:55;;;;;;;;;3.00;3.00;;;;;21.97;30.29;101246.69;110421;1264;13515;-69
2022/09/07 10:21:23;;;;;;;;;4.00;3.00;;;;;22.29;30.11;101247.27;110397;1264;12634;-70
2022/09/07 10:23:50;;;;;;;;;3.00;3.00;;;;;22.49;30.04;101242.42;110442;1264;15084;-70
2022/09/07 10:26:17;;;;;;;;;3.00;3.00;;;;;22.40;30.04;101241.77;110409;1264;12933;-71
2022/09/07 10:28:45;;;;;;;;;3.00;3.00;;;;;22.41;30.17;101242.05;110444;1264;14321;-70
2022/09/07 10:31:12;;;;;;;;;5.00;4.33;;;;;22.54;30.28;101240.74;110313;1264;13217;-69
2022/09/07 10:33:40;;;;;;;;;5.00;5.00;;;;;22.44;30.16;101237.29;110421;1264;13501;-70
2022/09/07 10:36:07;;;;;;;;;5.00;3.00;;;;;22.43;30.30;101229.02;110432;1263;13567;-70
2022/09/07 10:38:35;;;;;;;;;4.33;4.33;;;;;22.41;30.41;101233.88;110447;1263;14349;-70
2022/09/07 10:41:02;;;;;;;;;5.00;5.00;;;;;22.44;30.60;101229.64;110331;1263;13180;-70
2022/09/07 10:43:30;;;;;;;;;4.00;3.00;;;;;22.50;30.38;101225.92;110234;1262;13354;-69
2022/09/07 10:45:57;;;;;;;;;3.00;3.00;;;;;22.52;30.50;101219.85;110350;1264;14476;-67
2022/09/07 10:48:24;;;;;;;;;3.67;3.67;;;;;22.55;30.41;101220.04;110339;1264;13194;-70
2022/09/07 10:50:52;;;;;;;;;4.33;3.00;;;;;22.52;30.32;101216.35;110341;1264;14649;-70
2022/09/07 10:53:19;;;;;;;;;5.00;5.00;;;;;22.31;30.24;101227.20;110354;1264;13345;-69
2022/09/07 10:55:47;;;;;;;;;3.00;3.00;;;;;22.07;30.18;101227.85;110334;1264;13342;-71
2022/09/07 10:58:14;;;;;;;;;3.00;3.00;;;;;22.41;30.17;101223.09;110376;1264;14815;-70
2022/09/07 11:00:42;;;;;;;;;3.67;3.67;;;;;22.38;29.77;101221.11;110341;1264;14353;-69
2022/09/07 11:03:09;;;;;;;;;3.67;3.00;;;;;22.44;29.90;101220.95;110354;1265;13030;-70
2022/09/07 11:05:36;;;;;;;;;5.00;3.00;;;;;22.49;29.82;101219.85;110309;1264;13167;-69
2022/09/07 11:08:03;;;;;;;;;5.00;5.00;;;;;22.50;29.71;101220.81;110355;1264;14828;-70
2022/09/07 11:10:31;;;;;;;;;4.00;4.00;;;;;22.55;29.82;101208.60;110334;1264;13897;-71
2022/09/07 11:12:58;;;;;;;;;6.00;5.00;;;;;22.61;29.75;101210.91;110310;1264;13272;-70
2022/09/07 11:15:26;;;;;;;;;5.00;3.00;;;;;22.61;29.94;101208.52;110323;1264;14703;-71
2022/09/07 11:17:53;;;;;;;;;2.33;2.33;;;;;22.72;30.08;101205.52;110350;1264;13600;-70
2022/09/07 11:20:21;;;;;;;;;3.00;3.00;;;;;22.80;30.24;101203.66;110327;1264;14792;-70